sensor_id;sensor_type;location;lat;lon;timestamp;P1;durP1;ratioP1;P2;durP2;ratioP2
25715;SDS011;13573;50.936;4.328;2023-05-25T00:01:30;13.47;;;5.00;;
25715;SDS011;13573;50.936;4.328;2023-05-25T00:03:59;6.97;;;3.47;;
25715;SDS011;13573;50.936;4.328;2023-05-25T00:06:29;10.30;;;3.97;;
25715;SDS011;13573;50.936;4.328;2023-05-25T00:08:57;11.93;;;4.23;;
25715;SDS011;13573;50.936;4.328;2023-05-25T00:11:24;9.13;;;4.07;;
25715;SDS011;13573;50.936;4.328;2023-05-25T00:13:51;11.17;;;4.03;;
25715;SDS011;13573;50.936;4.328;2023-05-25T00:16:18;10.60;;;4.27;;
25715;SDS011;13573;50.936;4.328;2023-05-25T00:18:45;15.93;;;4.80;;
25715;SDS011;13573;50.936;4.328;2023-05-25T00:21:13;12.37;;;4.40;;
25715;SDS011;13573;50.936;4.328;2023-05-25T00:23:41;9.70;;;4.10;;
25715;SDS011;13573;50.936;4.328;2023-05-25T00:26:08;18.00;;;4.53;;
25715;SDS011;13573;50.936;4.328;2023-05-25T00:28:35;15.37;;;4.80;;
25715;SDS011;13573;50.936;4.328;2023-05-25T00:31:01;10.27;;;4.30;;
25715;SDS011;13573;50.936;4.328;2023-05-25T00:33:28;14.57;;;4.37;;
25715;SDS011;13573;50.936;4.328;2023-05-25T00:35:55;11.30;;;4.80;;
25715;SDS011;13573;50.936;4.328;2023-05-25T00:38:23;11.30;;;4.93;;
25715;SDS011;13573;50.936;4.328;2023-05-25T00:40:53;11.37;;;5.43;;
25715;SDS011;13573;50.936;4.328;2023-05-25T00:43:21;9.50;;;4.83;;
25715;SDS011;13573;50.936;4.328;2023-05-25T00:45:48;15.73;;;4.63;;
25715;SDS011;13573;50.936;4.328;2023-05-25T00:48:17;10.47;;;4.13;;
25715;SDS011;13573;50.936;4.328;2023-05-25T00:50:44;9.43;;;4.03;;
25715;SDS011;13573;50.936;4.328;2023-05-25T00:53:12;16.77;;;5.20;;
25715;SDS011;13573;50.936;4.328;2023-05-25T00:55:44;11.07;;;4.73;;
25715;SDS011;13573;50.936;4.328;2023-05-25T00:58:13;9.83;;;4.50;;
25715;SDS011;13573;50.936;4.328;2023-05-25T01:00:42;11.20;;;4.77;;
25715;SDS011;13573;50.936;4.328;2023-05-25T01:03:12;10.37;;;4.77;;
25715;SDS011;13573;50.936;4.328;2023-05-25T01:05:43;14.37;;;5.30;;
25715;SDS011;13573;50.936;4.328;2023-05-25T01:08:12;10.13;;;4.70;;
25715;SDS011;13573;50.936;4.328;2023-05-25T01:10:41;12.27;;;5.43;;
25715;SDS011;13573;50.936;4.328;2023-05-25T01:13:10;13.60;;;5.07;;
25715;SDS011;13573;50.936;4.328;2023-05-25T01:15:39;9.57;;;4.47;;
25715;SDS011;13573;50.936;4.328;2023-05-25T01:18:06;14.63;;;4.97;;
25715;SDS011;13573;50.936;4.328;2023-05-25T01:20:34;13.47;;;4.90;;
25715;SDS011;13573;50.936;4.328;2023-05-25T01:23:05;17.20;;;4.90;;
25715;SDS011;13573;50.936;4.328;2023-05-25T01:25:38;11.27;;;4.87;;
25715;SDS011;13573;50.936;4.328;2023-05-25T01:28:08;11.57;;;4.70;;
25715;SDS011;13573;50.936;4.328;2023-05-25T01:30:38;19.97;;;6.13;;
25715;SDS011;13573;50.936;4.328;2023-05-25T01:33:07;11.80;;;5.13;;
25715;SDS011;13573;50.936;4.328;2023-05-25T01:35:35;15.33;;;5.37;;
25715;SDS011;13573;50.936;4.328;2023-05-25T01:38:03;18.67;;;5.30;;
25715;SDS011;13573;50.936;4.328;2023-05-25T01:40:31;11.50;;;5.00;;
25715;SDS011;13573;50.936;4.328;2023-05-25T01:42:58;12.00;;;4.20;;
25715;SDS011;13573;50.936;4.328;2023-05-25T01:45:24;19.37;;;5.00;;
25715;SDS011;13573;50.936;4.328;2023-05-25T01:47:56;20.67;;;6.23;;
25715;SDS011;13573;50.936;4.328;2023-05-25T01:50:58;9.13;;;4.60;;
25715;SDS011;13573;50.936;4.328;2023-05-25T01:53:11;11.67;;;4.70;;
25715;SDS011;13573;50.936;4.328;2023-05-25T01:55:49;10.77;;;5.37;;
25715;SDS011;13573;50.936;4.328;2023-05-25T01:58:14;19.60;;;5.80;;
25715;SDS011;13573;50.936;4.328;2023-05-25T02:00:42;15.93;;;5.20;;
25715;SDS011;13573;50.936;4.328;2023-05-25T02:03:11;14.83;;;4.93;;
25715;SDS011;13573;50.936;4.328;2023-05-25T02:05:40;8.77;;;4.60;;
25715;SDS011;13573;50.936;4.328;2023-05-25T02:08:07;12.80;;;4.80;;
25715;SDS011;13573;50.936;4.328;2023-05-25T02:10:33;10.87;;;5.13;;
25715;SDS011;13573;50.936;4.328;2023-05-25T02:13:00;20.70;;;5.87;;
25715;SDS011;13573;50.936;4.328;2023-05-25T02:15:29;13.73;;;4.90;;
25715;SDS011;13573;50.936;4.328;2023-05-25T02:17:57;15.10;;;5.40;;
25715;SDS011;13573;50.936;4.328;2023-05-25T02:20:25;13.27;;;5.20;;
25715;SDS011;13573;50.936;4.328;2023-05-25T02:22:53;14.47;;;4.67;;
25715;SDS011;13573;50.936;4.328;2023-05-25T02:25:19;11.10;;;5.47;;
25715;SDS011;13573;50.936;4.328;2023-05-25T02:27:46;24.07;;;5.97;;
25715;SDS011;13573;50.936;4.328;2023-05-25T02:30:13;18.00;;;5.70;;
25715;SDS011;13573;50.936;4.328;2023-05-25T02:32:39;13.33;;;5.50;;
25715;SDS011;13573;50.936;4.328;2023-05-25T02:35:06;19.43;;;5.20;;
25715;SDS011;13573;50.936;4.328;2023-05-25T02:37:33;15.23;;;5.83;;
25715;SDS011;13573;50.936;4.328;2023-05-25T02:40:00;14.07;;;5.17;;
25715;SDS011;13573;50.936;4.328;2023-05-25T02:42:26;17.97;;;5.63;;
25715;SDS011;13573;50.936;4.328;2023-05-25T02:44:53;11.03;;;5.53;;
25715;SDS011;13573;50.936;4.328;2023-05-25T02:47:20;17.07;;;5.67;;
25715;SDS011;13573;50.936;4.328;2023-05-25T02:49:47;18.90;;;5.97;;
25715;SDS011;13573;50.936;4.328;2023-05-25T02:52:13;16.13;;;5.70;;
25715;SDS011;13573;50.936;4.328;2023-05-25T02:54:40;19.07;;;6.87;;
25715;SDS011;13573;50.936;4.328;2023-05-25T02:57:07;14.43;;;6.17;;
25715;SDS011;13573;50.936;4.328;2023-05-25T02:59:34;18.37;;;6.17;;
25715;SDS011;13573;50.936;4.328;2023-05-25T03:02:01;14.37;;;6.00;;
25715;SDS011;13573;50.936;4.328;2023-05-25T03:04:28;21.70;;;7.17;;
25715;SDS011;13573;50.936;4.328;2023-05-25T03:06:56;21.93;;;6.90;;
25715;SDS011;13573;50.936;4.328;2023-05-25T03:09:23;16.73;;;6.47;;
25715;SDS011;13573;50.936;4.328;2023-05-25T03:11:49;17.93;;;6.47;;
25715;SDS011;13573;50.936;4.328;2023-05-25T03:14:16;21.60;;;7.10;;
25715;SDS011;13573;50.936;4.328;2023-05-25T03:16:43;16.50;;;6.43;;
25715;SDS011;13573;50.936;4.328;2023-05-25T03:19:09;23.47;;;6.67;;
25715;SDS011;13573;50.936;4.328;2023-05-25T03:21:37;16.50;;;7.03;;
25715;SDS011;13573;50.936;4.328;2023-05-25T03:24:04;16.07;;;7.57;;
25715;SDS011;13573;50.936;4.328;2023-05-25T03:26:30;26.97;;;7.50;;
25715;SDS011;13573;50.936;4.328;2023-05-25T03:28:58;15.67;;;6.77;;
25715;SDS011;13573;50.936;4.328;2023-05-25T03:31:25;25.23;;;7.50;;
25715;SDS011;13573;50.936;4.328;2023-05-25T03:33:51;12.10;;;4.30;;
25715;SDS011;13573;50.936;4.328;2023-05-25T03:36:18;24.27;;;7.13;;
25715;SDS011;13573;50.936;4.328;2023-05-25T03:38:46;16.73;;;6.37;;
25715;SDS011;13573;50.936;4.328;2023-05-25T03:41:13;22.60;;;7.80;;
25715;SDS011;13573;50.936;4.328;2023-05-25T03:43:40;20.03;;;6.60;;
25715;SDS011;13573;50.936;4.328;2023-05-25T03:46:06;20.90;;;8.03;;
25715;SDS011;13573;50.936;4.328;2023-05-25T03:48:35;19.07;;;7.80;;
25715;SDS011;13573;50.936;4.328;2023-05-25T03:51:02;21.47;;;7.77;;
25715;SDS011;13573;50.936;4.328;2023-05-25T03:53:29;19.60;;;7.40;;
25715;SDS011;13573;50.936;4.328;2023-05-25T03:55:55;22.00;;;7.00;;
25715;SDS011;13573;50.936;4.328;2023-05-25T03:58:22;24.27;;;7.70;;
25715;SDS011;13573;50.936;4.328;2023-05-25T04:00:49;19.53;;;7.23;;
25715;SDS011;13573;50.936;4.328;2023-05-25T04:03:16;16.83;;;7.30;;
25715;SDS011;13573;50.936;4.328;2023-05-25T04:05:43;25.33;;;7.97;;
25715;SDS011;13573;50.936;4.328;2023-05-25T04:08:13;29.37;;;8.20;;
25715;SDS011;13573;50.936;4.328;2023-05-25T04:10:44;15.80;;;7.67;;
25715;SDS011;13573;50.936;4.328;2023-05-25T04:13:11;23.17;;;7.90;;
25715;SDS011;13573;50.936;4.328;2023-05-25T04:15:39;26.70;;;7.57;;
25715;SDS011;13573;50.936;4.328;2023-05-25T04:18:05;21.57;;;8.03;;
25715;SDS011;13573;50.936;4.328;2023-05-25T04:20:32;23.83;;;6.97;;
25715;SDS011;13573;50.936;4.328;2023-05-25T04:22:58;19.47;;;7.67;;
25715;SDS011;13573;50.936;4.328;2023-05-25T04:25:25;9.40;;;4.23;;
25715;SDS011;13573;50.936;4.328;2023-05-25T04:27:52;22.17;;;8.33;;
25715;SDS011;13573;50.936;4.328;2023-05-25T04:30:21;17.77;;;7.90;;
25715;SDS011;13573;50.936;4.328;2023-05-25T04:32:47;22.70;;;8.37;;
25715;SDS011;13573;50.936;4.328;2023-05-25T04:35:15;19.23;;;7.10;;
25715;SDS011;13573;50.936;4.328;2023-05-25T04:37:43;18.40;;;7.63;;
25715;SDS011;13573;50.936;4.328;2023-05-25T04:40:11;19.10;;;7.50;;
25715;SDS011;13573;50.936;4.328;2023-05-25T04:42:39;17.13;;;7.53;;
25715;SDS011;13573;50.936;4.328;2023-05-25T04:45:06;18.47;;;8.07;;
25715;SDS011;13573;50.936;4.328;2023-05-25T04:47:36;14.53;;;6.87;;
25715;SDS011;13573;50.936;4.328;2023-05-25T04:50:06;17.03;;;7.27;;
25715;SDS011;13573;50.936;4.328;2023-05-25T04:52:34;25.10;;;7.40;;
25715;SDS011;13573;50.936;4.328;2023-05-25T04:55:01;16.70;;;6.20;;
25715;SDS011;13573;50.936;4.328;2023-05-25T04:57:28;17.90;;;6.17;;
25715;SDS011;13573;50.936;4.328;2023-05-25T04:59:56;12.73;;;5.30;;
25715;SDS011;13573;50.936;4.328;2023-05-25T05:02:24;12.03;;;5.60;;
25715;SDS011;13573;50.936;4.328;2023-05-25T05:04:51;21.40;;;5.80;;
25715;SDS011;13573;50.936;4.328;2023-05-25T05:07:18;14.20;;;6.03;;
25715;SDS011;13573;50.936;4.328;2023-05-25T05:09:46;12.03;;;4.73;;
25715;SDS011;13573;50.936;4.328;2023-05-25T05:12:13;15.10;;;5.30;;
25715;SDS011;13573;50.936;4.328;2023-05-25T05:14:40;13.30;;;5.93;;
25715;SDS011;13573;50.936;4.328;2023-05-25T05:17:07;12.17;;;5.10;;
25715;SDS011;13573;50.936;4.328;2023-05-25T05:19:33;13.57;;;5.23;;
25715;SDS011;13573;50.936;4.328;2023-05-25T05:22:00;13.63;;;5.30;;
25715;SDS011;13573;50.936;4.328;2023-05-25T05:24:27;21.80;;;5.40;;
25715;SDS011;13573;50.936;4.328;2023-05-25T05:26:53;13.90;;;4.37;;
25715;SDS011;13573;50.936;4.328;2023-05-25T05:29:20;16.30;;;5.43;;
25715;SDS011;13573;50.936;4.328;2023-05-25T05:31:46;12.27;;;4.67;;
25715;SDS011;13573;50.936;4.328;2023-05-25T05:34:13;14.93;;;5.23;;
25715;SDS011;13573;50.936;4.328;2023-05-25T05:36:40;16.73;;;5.13;;
25715;SDS011;13573;50.936;4.328;2023-05-25T05:39:06;14.03;;;4.77;;
25715;SDS011;13573;50.936;4.328;2023-05-25T05:41:33;11.10;;;4.80;;
25715;SDS011;13573;50.936;4.328;2023-05-25T05:44:00;14.37;;;5.57;;
25715;SDS011;13573;50.936;4.328;2023-05-25T05:46:26;15.30;;;4.87;;
25715;SDS011;13573;50.936;4.328;2023-05-25T05:48:53;10.93;;;4.30;;
25715;SDS011;13573;50.936;4.328;2023-05-25T05:51:20;14.33;;;4.87;;
25715;SDS011;13573;50.936;4.328;2023-05-25T05:53:46;14.50;;;4.40;;
25715;SDS011;13573;50.936;4.328;2023-05-25T05:56:17;10.07;;;4.43;;
25715;SDS011;13573;50.936;4.328;2023-05-25T05:58:44;15.07;;;4.97;;
25715;SDS011;13573;50.936;4.328;2023-05-25T06:01:13;11.03;;;3.80;;
25715;SDS011;13573;50.936;4.328;2023-05-25T06:03:39;44.03;;;5.50;;
25715;SDS011;13573;50.936;4.328;2023-05-25T06:06:06;40.40;;;5.60;;
25715;SDS011;13573;50.936;4.328;2023-05-25T06:08:33;14.50;;;4.60;;
25715;SDS011;13573;50.936;4.328;2023-05-25T06:10:59;15.73;;;4.60;;
25715;SDS011;13573;50.936;4.328;2023-05-25T06:13:27;19.53;;;4.43;;
25715;SDS011;13573;50.936;4.328;2023-05-25T06:15:53;13.73;;;4.13;;
25715;SDS011;13573;50.936;4.328;2023-05-25T06:18:20;15.33;;;4.40;;
25715;SDS011;13573;50.936;4.328;2023-05-25T06:20:47;12.27;;;4.77;;
25715;SDS011;13573;50.936;4.328;2023-05-25T06:23:13;11.43;;;4.13;;
25715;SDS011;13573;50.936;4.328;2023-05-25T06:25:40;12.97;;;4.23;;
25715;SDS011;13573;50.936;4.328;2023-05-25T06:28:07;14.87;;;4.73;;
25715;SDS011;13573;50.936;4.328;2023-05-25T06:30:36;15.63;;;4.07;;
25715;SDS011;13573;50.936;4.328;2023-05-25T06:33:03;18.27;;;4.93;;
25715;SDS011;13573;50.936;4.328;2023-05-25T06:35:29;10.07;;;4.70;;
25715;SDS011;13573;50.936;4.328;2023-05-25T06:37:56;13.27;;;4.03;;
25715;SDS011;13573;50.936;4.328;2023-05-25T06:40:23;16.10;;;4.53;;
25715;SDS011;13573;50.936;4.328;2023-05-25T06:42:49;11.07;;;4.07;;
25715;SDS011;13573;50.936;4.328;2023-05-25T06:45:16;14.20;;;4.53;;
25715;SDS011;13573;50.936;4.328;2023-05-25T06:47:42;15.63;;;4.80;;
25715;SDS011;13573;50.936;4.328;2023-05-25T06:50:09;14.13;;;4.33;;
25715;SDS011;13573;50.936;4.328;2023-05-25T06:52:37;15.70;;;5.00;;
25715;SDS011;13573;50.936;4.328;2023-05-25T06:55:03;10.73;;;4.30;;
25715;SDS011;13573;50.936;4.328;2023-05-25T06:57:32;14.17;;;4.43;;
25715;SDS011;13573;50.936;4.328;2023-05-25T06:59:58;14.63;;;4.53;;
25715;SDS011;13573;50.936;4.328;2023-05-25T07:02:26;11.77;;;3.63;;
25715;SDS011;13573;50.936;4.328;2023-05-25T07:04:52;13.17;;;4.37;;
25715;SDS011;13573;50.936;4.328;2023-05-25T07:07:19;14.60;;;4.03;;
25715;SDS011;13573;50.936;4.328;2023-05-25T07:09:47;10.97;;;4.23;;
25715;SDS011;13573;50.936;4.328;2023-05-25T07:12:13;11.90;;;4.20;;
25715;SDS011;13573;50.936;4.328;2023-05-25T07:14:40;11.50;;;3.80;;
25715;SDS011;13573;50.936;4.328;2023-05-25T07:17:07;9.40;;;3.60;;
25715;SDS011;13573;50.936;4.328;2023-05-25T07:19:33;13.70;;;4.03;;
25715;SDS011;13573;50.936;4.328;2023-05-25T07:22:00;12.40;;;4.00;;
25715;SDS011;13573;50.936;4.328;2023-05-25T07:24:27;13.50;;;4.03;;
25715;SDS011;13573;50.936;4.328;2023-05-25T07:26:54;15.37;;;4.07;;
25715;SDS011;13573;50.936;4.328;2023-05-25T07:29:21;15.70;;;4.47;;
25715;SDS011;13573;50.936;4.328;2023-05-25T07:31:47;10.73;;;3.50;;
25715;SDS011;13573;50.936;4.328;2023-05-25T07:34:14;9.80;;;4.07;;
25715;SDS011;13573;50.936;4.328;2023-05-25T07:36:41;19.20;;;4.37;;
25715;SDS011;13573;50.936;4.328;2023-05-25T07:39:07;11.03;;;3.70;;
25715;SDS011;13573;50.936;4.328;2023-05-25T07:41:36;12.63;;;5.20;;
25715;SDS011;13573;50.936;4.328;2023-05-25T07:44:03;9.50;;;5.77;;
25715;SDS011;13573;50.936;4.328;2023-05-25T07:46:30;16.07;;;7.73;;
25715;SDS011;13573;50.936;4.328;2023-05-25T07:48:57;14.37;;;7.97;;
25715;SDS011;13573;50.936;4.328;2023-05-25T07:51:24;17.47;;;7.40;;
25715;SDS011;13573;50.936;4.328;2023-05-25T07:53:53;13.53;;;8.13;;
25715;SDS011;13573;50.936;4.328;2023-05-25T07:56:21;9.80;;;7.25;;
25715;SDS011;13573;50.936;4.328;2023-05-25T07:58:48;14.28;;;7.85;;
25715;SDS011;13573;50.936;4.328;2023-05-25T08:01:15;11.75;;;8.00;;
25715;SDS011;13573;50.936;4.328;2023-05-25T08:03:41;15.53;;;8.23;;
25715;SDS011;13573;50.936;4.328;2023-05-25T08:06:08;17.23;;;7.60;;
25715;SDS011;13573;50.936;4.328;2023-05-25T08:08:35;23.62;;;7.45;;
25715;SDS011;13573;50.936;4.328;2023-05-25T08:11:02;11.70;;;7.30;;
25715;SDS011;13573;50.936;4.328;2023-05-25T08:13:28;16.42;;;8.30;;
25715;SDS011;13573;50.936;4.328;2023-05-25T08:15:55;11.08;;;7.55;;
25715;SDS011;13573;50.936;4.328;2023-05-25T08:18:22;13.65;;;7.05;;
25715;SDS011;13573;50.936;4.328;2023-05-25T08:20:48;18.25;;;7.47;;
25715;SDS011;13573;50.936;4.328;2023-05-25T08:23:15;16.05;;;8.93;;
25715;SDS011;13573;50.936;4.328;2023-05-25T08:25:42;18.10;;;8.25;;
25715;SDS011;13573;50.936;4.328;2023-05-25T08:28:09;16.70;;;9.28;;
25715;SDS011;13573;50.936;4.328;2023-05-25T08:30:36;10.28;;;8.30;;
25715;SDS011;13573;50.936;4.328;2023-05-25T08:33:02;12.35;;;8.10;;
25715;SDS011;13573;50.936;4.328;2023-05-25T08:35:29;15.13;;;8.75;;
25715;SDS011;13573;50.936;4.328;2023-05-25T08:37:56;12.28;;;8.53;;
25715;SDS011;13573;50.936;4.328;2023-05-25T08:40:24;12.45;;;6.45;;
25715;SDS011;13573;50.936;4.328;2023-05-25T08:42:53;10.97;;;6.30;;
25715;SDS011;13573;50.936;4.328;2023-05-25T08:45:20;14.43;;;6.70;;
25715;SDS011;13573;50.936;4.328;2023-05-25T08:47:47;14.87;;;7.25;;
25715;SDS011;13573;50.936;4.328;2023-05-25T08:50:16;10.63;;;6.83;;
25715;SDS011;13573;50.936;4.328;2023-05-25T08:52:43;10.15;;;6.67;;
25715;SDS011;13573;50.936;4.328;2023-05-25T08:55:12;14.03;;;7.37;;
25715;SDS011;13573;50.936;4.328;2023-05-25T08:57:58;11.60;;;7.12;;
25715;SDS011;13573;50.936;4.328;2023-05-25T09:00:28;8.93;;;6.28;;
25715;SDS011;13573;50.936;4.328;2023-05-25T09:03:05;15.53;;;7.37;;
25715;SDS011;13573;50.936;4.328;2023-05-25T09:05:34;11.10;;;10.00;;
25715;SDS011;13573;50.936;4.328;2023-05-25T09:08:03;10.40;;;9.18;;
25715;SDS011;13573;50.936;4.328;2023-05-25T09:10:34;10.00;;;9.05;;
25715;SDS011;13573;50.936;4.328;2023-05-25T09:13:01;12.70;;;8.75;;
25715;SDS011;13573;50.936;4.328;2023-05-25T09:15:29;7.45;;;3.12;;
25715;SDS011;13573;50.936;4.328;2023-05-25T09:17:56;6.60;;;2.65;;
25715;SDS011;13573;50.936;4.328;2023-05-25T09:20:23;12.75;;;2.85;;
25715;SDS011;13573;50.936;4.328;2023-05-25T09:22:52;35.10;;;3.67;;
25715;SDS011;13573;50.936;4.328;2023-05-25T09:25:18;9.18;;;3.30;;
25715;SDS011;13573;50.936;4.328;2023-05-25T09:27:45;7.85;;;2.80;;
25715;SDS011;13573;50.936;4.328;2023-05-25T09:30:12;6.10;;;3.17;;
25715;SDS011;13573;50.936;4.328;2023-05-25T09:32:38;8.38;;;2.98;;
25715;SDS011;13573;50.936;4.328;2023-05-25T09:35:07;8.75;;;2.80;;
25715;SDS011;13573;50.936;4.328;2023-05-25T09:37:35;9.65;;;2.80;;
25715;SDS011;13573;50.936;4.328;2023-05-25T09:40:03;8.33;;;2.80;;
25715;SDS011;13573;50.936;4.328;2023-05-25T09:42:32;3.08;;;1.35;;
25715;SDS011;13573;50.936;4.328;2023-05-25T09:44:58;12.00;;;3.22;;
25715;SDS011;13573;50.936;4.328;2023-05-25T09:47:26;7.83;;;2.50;;
25715;SDS011;13573;50.936;4.328;2023-05-25T09:49:53;9.63;;;2.87;;
25715;SDS011;13573;50.936;4.328;2023-05-25T09:52:21;9.20;;;2.70;;
25715;SDS011;13573;50.936;4.328;2023-05-25T09:54:56;8.70;;;3.00;;
25715;SDS011;13573;50.936;4.328;2023-05-25T09:57:22;9.40;;;3.00;;
25715;SDS011;13573;50.936;4.328;2023-05-25T09:59:49;7.08;;;2.70;;
25715;SDS011;13573;50.936;4.328;2023-05-25T10:02:16;6.72;;;2.85;;
25715;SDS011;13573;50.936;4.328;2023-05-25T10:04:43;6.00;;;2.80;;
25715;SDS011;13573;50.936;4.328;2023-05-25T10:07:10;6.20;;;2.80;;
25715;SDS011;13573;50.936;4.328;2023-05-25T10:09:39;13.15;;;3.27;;
25715;SDS011;13573;50.936;4.328;2023-05-25T10:12:07;9.00;;;2.83;;
25715;SDS011;13573;50.936;4.328;2023-05-25T10:14:35;12.75;;;3.02;;
25715;SDS011;13573;50.936;4.328;2023-05-25T10:17:03;8.45;;;3.05;;
25715;SDS011;13573;50.936;4.328;2023-05-25T10:19:36;12.28;;;3.15;;
25715;SDS011;13573;50.936;4.328;2023-05-25T10:22:24;11.40;;;3.50;;
25715;SDS011;13573;50.936;4.328;2023-05-25T10:25:06;10.03;;;2.95;;
25715;SDS011;13573;50.936;4.328;2023-05-25T10:27:38;11.50;;;3.12;;
25715;SDS011;13573;50.936;4.328;2023-05-25T10:30:07;10.65;;;2.95;;
25715;SDS011;13573;50.936;4.328;2023-05-25T10:32:35;15.90;;;3.05;;
25715;SDS011;13573;50.936;4.328;2023-05-25T10:35:03;7.92;;;2.92;;
25715;SDS011;13573;50.936;4.328;2023-05-25T10:37:38;14.45;;;3.15;;
25715;SDS011;13573;50.936;4.328;2023-05-25T10:40:05;19.00;;;3.35;;
25715;SDS011;13573;50.936;4.328;2023-05-25T10:42:34;8.68;;;2.72;;
25715;SDS011;13573;50.936;4.328;2023-05-25T10:45:04;14.70;;;3.12;;
25715;SDS011;13573;50.936;4.328;2023-05-25T10:47:33;9.05;;;2.80;;
25715;SDS011;13573;50.936;4.328;2023-05-25T10:50:02;7.87;;;3.10;;
25715;SDS011;13573;50.936;4.328;2023-05-25T10:52:30;6.47;;;3.17;;
25715;SDS011;13573;50.936;4.328;2023-05-25T10:54:58;7.03;;;3.20;;
25715;SDS011;13573;50.936;4.328;2023-05-25T10:57:28;13.75;;;3.40;;
25715;SDS011;13573;50.936;4.328;2023-05-25T11:00:10;7.70;;;2.92;;
25715;SDS011;13573;50.936;4.328;2023-05-25T11:02:47;9.38;;;3.15;;
25715;SDS011;13573;50.936;4.328;2023-05-25T11:08:07;16.15;;;3.50;;
25715;SDS011;13573;50.936;4.328;2023-05-25T11:10:41;12.88;;;3.58;;
25715;SDS011;13573;50.936;4.328;2023-05-25T11:13:31;10.48;;;3.90;;
25715;SDS011;13573;50.936;4.328;2023-05-25T11:18:42;12.60;;;2.87;;
25715;SDS011;13573;50.936;4.328;2023-05-25T11:21:42;6.97;;;3.40;;
25715;SDS011;13573;50.936;4.328;2023-05-25T11:24:11;7.45;;;3.15;;
25715;SDS011;13573;50.936;4.328;2023-05-25T11:29:20;9.45;;;3.83;;
25715;SDS011;13573;50.936;4.328;2023-05-25T11:31:51;16.90;;;4.08;;
25715;SDS011;13573;50.936;4.328;2023-05-25T11:34:20;11.43;;;3.83;;
25715;SDS011;13573;50.936;4.328;2023-05-25T11:36:52;14.23;;;3.87;;
25715;SDS011;13573;50.936;4.328;2023-05-25T11:39:22;11.60;;;3.75;;
25715;SDS011;13573;50.936;4.328;2023-05-25T11:41:51;7.90;;;3.60;;
25715;SDS011;13573;50.936;4.328;2023-05-25T11:44:26;7.05;;;3.37;;
25715;SDS011;13573;50.936;4.328;2023-05-25T11:46:55;10.58;;;3.45;;
25715;SDS011;13573;50.936;4.328;2023-05-25T11:49:23;11.78;;;3.50;;
25715;SDS011;13573;50.936;4.328;2023-05-25T11:51:50;13.30;;;3.70;;
25715;SDS011;13573;50.936;4.328;2023-05-25T11:54:21;8.38;;;3.35;;
25715;SDS011;13573;50.936;4.328;2023-05-25T11:56:49;12.03;;;3.62;;
25715;SDS011;13573;50.936;4.328;2023-05-25T11:59:16;11.73;;;3.40;;
25715;SDS011;13573;50.936;4.328;2023-05-25T12:01:43;8.15;;;3.60;;
25715;SDS011;13573;50.936;4.328;2023-05-25T12:04:11;3.85;;;2.15;;
25715;SDS011;13573;50.936;4.328;2023-05-25T12:06:38;10.98;;;3.17;;
25715;SDS011;13573;50.936;4.328;2023-05-25T12:09:09;11.93;;;3.33;;
25715;SDS011;13573;50.936;4.328;2023-05-25T12:11:37;9.15;;;3.20;;
25715;SDS011;13573;50.936;4.328;2023-05-25T12:14:05;11.83;;;3.00;;
25715;SDS011;13573;50.936;4.328;2023-05-25T12:16:33;11.75;;;3.35;;
25715;SDS011;13573;50.936;4.328;2023-05-25T12:19:03;12.28;;;3.25;;
25715;SDS011;13573;50.936;4.328;2023-05-25T12:21:30;10.30;;;3.70;;
25715;SDS011;13573;50.936;4.328;2023-05-25T12:23:57;11.57;;;4.47;;
25715;SDS011;13573;50.936;4.328;2023-05-25T12:26:26;14.43;;;3.80;;
25715;SDS011;13573;50.936;4.328;2023-05-25T12:28:57;12.20;;;3.40;;
25715;SDS011;13573;50.936;4.328;2023-05-25T12:31:33;15.53;;;3.30;;
25715;SDS011;13573;50.936;4.328;2023-05-25T12:34:16;19.12;;;3.77;;
25715;SDS011;13573;50.936;4.328;2023-05-25T12:36:45;8.53;;;3.15;;
25715;SDS011;13573;50.936;4.328;2023-05-25T12:39:16;14.80;;;3.08;;
25715;SDS011;13573;50.936;4.328;2023-05-25T12:41:48;6.90;;;3.80;;
25715;SDS011;13573;50.936;4.328;2023-05-25T12:44:24;11.80;;;3.73;;
25715;SDS011;13573;50.936;4.328;2023-05-25T12:46:53;22.87;;;3.97;;
25715;SDS011;13573;50.936;4.328;2023-05-25T12:49:22;12.27;;;3.70;;
25715;SDS011;13573;50.936;4.328;2023-05-25T12:51:49;19.27;;;4.60;;
25715;SDS011;13573;50.936;4.328;2023-05-25T12:54:16;6.97;;;3.73;;
25715;SDS011;13573;50.936;4.328;2023-05-25T12:57:05;12.77;;;3.77;;
25715;SDS011;13573;50.936;4.328;2023-05-25T12:59:35;19.10;;;4.10;;
25715;SDS011;13573;50.936;4.328;2023-05-25T13:02:03;15.77;;;3.30;;
25715;SDS011;13573;50.936;4.328;2023-05-25T13:04:33;13.17;;;3.67;;
25715;SDS011;13573;50.936;4.328;2023-05-25T13:07:01;5.45;;;3.17;;
25715;SDS011;13573;50.936;4.328;2023-05-25T13:09:28;10.32;;;4.20;;
25715;SDS011;13573;50.936;4.328;2023-05-25T13:11:57;10.73;;;4.13;;
25715;SDS011;13573;50.936;4.328;2023-05-25T13:14:26;14.97;;;4.20;;
25715;SDS011;13573;50.936;4.328;2023-05-25T13:16:54;10.07;;;4.27;;
25715;SDS011;13573;50.936;4.328;2023-05-25T13:19:23;8.87;;;4.07;;
25715;SDS011;13573;50.936;4.328;2023-05-25T13:21:50;11.77;;;4.03;;
25715;SDS011;13573;50.936;4.328;2023-05-25T13:24:17;19.17;;;3.50;;
25715;SDS011;13573;50.936;4.328;2023-05-25T13:26:44;10.33;;;3.60;;
25715;SDS011;13573;50.936;4.328;2023-05-25T13:29:11;8.40;;;4.43;;
25715;SDS011;13573;50.936;4.328;2023-05-25T13:31:38;11.63;;;3.90;;
25715;SDS011;13573;50.936;4.328;2023-05-25T13:34:06;12.47;;;3.73;;
25715;SDS011;13573;50.936;4.328;2023-05-25T13:36:32;14.47;;;4.20;;
25715;SDS011;13573;50.936;4.328;2023-05-25T13:38:59;9.63;;;4.37;;
25715;SDS011;13573;50.936;4.328;2023-05-25T13:41:27;15.17;;;4.33;;
25715;SDS011;13573;50.936;4.328;2023-05-25T13:43:53;12.90;;;4.27;;
25715;SDS011;13573;50.936;4.328;2023-05-25T13:46:20;10.30;;;3.97;;
25715;SDS011;13573;50.936;4.328;2023-05-25T13:48:47;13.20;;;3.87;;
25715;SDS011;13573;50.936;4.328;2023-05-25T13:51:14;9.30;;;4.10;;
25715;SDS011;13573;50.936;4.328;2023-05-25T13:53:41;13.03;;;3.87;;
25715;SDS011;13573;50.936;4.328;2023-05-25T13:56:09;12.70;;;3.53;;
25715;SDS011;13573;50.936;4.328;2023-05-25T13:58:35;21.50;;;3.43;;
25715;SDS011;13573;50.936;4.328;2023-05-25T14:01:03;15.87;;;3.93;;
25715;SDS011;13573;50.936;4.328;2023-05-25T14:03:30;16.03;;;3.77;;
25715;SDS011;13573;50.936;4.328;2023-05-25T14:05:57;14.87;;;3.73;;
25715;SDS011;13573;50.936;4.328;2023-05-25T14:08:24;7.30;;;3.53;;
25715;SDS011;13573;50.936;4.328;2023-05-25T14:10:51;9.10;;;3.47;;
25715;SDS011;13573;50.936;4.328;2023-05-25T14:13:18;14.43;;;4.17;;
25715;SDS011;13573;50.936;4.328;2023-05-25T14:15:45;38.40;;;5.33;;
25715;SDS011;13573;50.936;4.328;2023-05-25T14:18:12;16.13;;;3.60;;
25715;SDS011;13573;50.936;4.328;2023-05-25T14:20:39;11.73;;;3.70;;
25715;SDS011;13573;50.936;4.328;2023-05-25T14:23:07;10.57;;;3.20;;
25715;SDS011;13573;50.936;4.328;2023-05-25T14:25:33;11.60;;;3.60;;
25715;SDS011;13573;50.936;4.328;2023-05-25T14:28:00;10.83;;;3.20;;
25715;SDS011;13573;50.936;4.328;2023-05-25T14:30:27;7.53;;;2.77;;
25715;SDS011;13573;50.936;4.328;2023-05-25T14:32:53;13.30;;;3.50;;
25715;SDS011;13573;50.936;4.328;2023-05-25T14:35:20;11.00;;;3.53;;
25715;SDS011;13573;50.936;4.328;2023-05-25T14:37:48;12.33;;;3.60;;
25715;SDS011;13573;50.936;4.328;2023-05-25T14:40:15;9.00;;;3.00;;
25715;SDS011;13573;50.936;4.328;2023-05-25T14:42:41;11.90;;;3.80;;
25715;SDS011;13573;50.936;4.328;2023-05-25T14:45:08;11.57;;;3.33;;
25715;SDS011;13573;50.936;4.328;2023-05-25T14:47:35;12.07;;;3.60;;
25715;SDS011;13573;50.936;4.328;2023-05-25T14:50:02;12.33;;;3.47;;